Time;durP1;ratioP1;P1;durP2;ratioP2;P2;SDS_P1;SDS_P2;PMS_P1;PMS_P2;Temp;Humidity;BMP_temperature;BMP_pressure;BME280_temperature;BME280_humidity;BME280_pressure;Samples;Min_cycle;Max_cycle;Signal;HPM_P1;HPM_P2
2021/07/04 00:00:37;;;;;;;7.43;6.57;;;19.40;1.00;;;;;;4974736;28;20085;-87
2021/07/04 00:03:04;;;;;;;9.18;6.43;;;19.40;1.00;;;;;;4974101;28;20042;-88
2021/07/04 00:05:37;;;;;;;8.00;6.32;;;19.40;1.00;;;;;;4973539;28;20082;-88
2021/07/04 00:08:05;;;;;;;7.28;6.57;;;19.50;1.00;;;;;;4974003;28;20038;-88
2021/07/04 00:10:36;;;;;;;7.70;6.70;;;19.40;1.00;;;;;;4973546;28;20031;-88
2021/07/04 00:13:02;;;;;;;10.02;6.30;;;19.40;1.00;;;;;;4974030;28;20031;-88
2021/07/04 00:15:34;;;;;;;7.60;5.88;;;19.40;1.00;;;;;;4973183;28;20026;-87
2021/07/04 00:17:59;;;;;;;7.40;6.50;;;19.40;1.00;;;;;;4973453;28;20106;-88
2021/07/04 00:20:25;;;;;;;8.38;6.20;;;19.30;1.00;;;;;;4973312;28;20097;-88
2021/07/04 00:22:54;;;;;;;9.48;6.13;;;19.30;1.00;;;;;;4973664;28;20027;-87
2021/07/04 00:25:21;;;;;;;9.93;6.22;;;19.40;1.00;;;;;;4973896;28;20399;-88
2021/07/04 00:27:46;;;;;;;7.00;6.00;;;19.30;1.00;;;;;;4973883;28;20053;-88
2021/07/04 00:30:14;;;;;;;9.32;6.65;;;19.30;1.00;;;;;;4972134;28;20034;-87
2021/07/04 00:32:40;;;;;;;7.20;6.00;;;19.20;1.00;;;;;;4973063;28;20050;-88
2021/07/04 00:35:07;;;;;;;10.35;6.18;;;19.20;1.00;;;;;;4972870;28;20027;-88
2021/07/04 00:37:33;;;;;;;7.32;5.90;;;19.10;1.00;;;;;;4973356;28;20046;-87
2021/07/04 00:39:58;;;;;;;7.40;6.35;;;19.10;1.00;;;;;;4973688;28;20431;-88
2021/07/04 00:42:24;;;;;;;7.60;6.10;;;19.00;1.00;;;;;;4973870;28;20492;-87
2021/07/04 00:44:52;;;;;;;7.43;5.53;;;19.10;1.00;;;;;;4973301;28;20027;-87
2021/07/04 00:47:17;;;;;;;8.68;6.15;;;19.10;1.00;;;;;;4972794;28;20031;-88
2021/07/04 00:49:43;;;;;;;9.48;5.95;;;19.10;1.00;;;;;;4972851;28;20093;-87
2021/07/04 00:52:09;;;;;;;9.07;6.30;;;19.00;1.00;;;;;;4973261;28;20488;-87
2021/07/04 00:54:35;;;;;;;8.63;5.85;;;19.00;1.00;;;;;;4972718;28;20157;-87
2021/07/04 00:57:01;;;;;;;10.95;6.03;;;19.10;1.00;;;;;;4972144;28;20033;-87
2021/07/04 00:59:27;;;;;;;6.75;6.00;;;19.10;1.00;;;;;;4971703;28;20031;-88
2021/07/04 01:01:57;;;;;;;8.00;6.40;;;19.00;1.00;;;;;;4973272;28;20392;-87
2021/07/04 01:04:23;;;;;;;9.07;6.32;;;19.00;1.00;;;;;;4972595;28;20398;-87
2021/07/04 01:06:49;;;;;;;10.05;6.50;;;19.30;1.00;;;;;;4973594;28;20102;-87
2021/07/04 01:09:15;;;;;;;7.38;6.45;;;19.00;1.00;;;;;;4972794;28;20495;-87
2021/07/04 01:11:41;;;;;;;10.15;6.25;;;19.00;1.00;;;;;;4971563;28;20526;-87
2021/07/04 01:14:07;;;;;;;7.63;6.47;;;19.00;1.00;;;;;;4973068;28;20479;-87
2021/07/04 01:16:32;;;;;;;9.00;6.82;;;18.90;1.00;;;;;;4971643;28;20118;-87
2021/07/04 01:18:58;;;;;;;10.50;6.53;;;19.00;1.00;;;;;;4972605;28;20057;-87
2021/07/04 01:21:26;;;;;;;9.32;6.57;;;18.90;1.00;;;;;;4972857;28;20098;-87
2021/07/04 01:23:52;;;;;;;9.57;6.45;;;18.90;1.00;;;;;;4973385;28;20396;-87
2021/07/04 01:26:18;;;;;;;8.18;5.65;;;18.80;1.00;;;;;;4971414;28;20415;-87
2021/07/04 01:28:43;;;;;;;10.40;6.47;;;19.00;1.00;;;;;;4972813;28;20101;-87
2021/07/04 01:31:09;;;;;;;13.40;6.55;;;19.10;1.00;;;;;;4972319;28;20035;-88
2021/07/04 01:33:36;;;;;;;8.60;6.40;;;18.90;1.00;;;;;;4972895;28;20499;-87
2021/07/04 01:36:02;;;;;;;7.20;5.80;;;19.00;1.00;;;;;;4970174;28;20023;-87
2021/07/04 01:38:27;;;;;;;6.88;6.10;;;18.90;1.00;;;;;;4971766;28;20042;-87
2021/07/04 01:40:53;;;;;;;8.93;6.20;;;18.80;1.00;;;;;;4972627;28;20018;-88
2021/07/04 01:45:44;;;;;;;7.88;7.05;;;18.70;1.00;;;;;;5021300;23;20054;-87
2021/07/04 01:48:11;;;;;;;10.82;6.90;;;18.60;1.00;;;;;;5011519;28;20045;-88
2021/07/04 01:50:42;;;;;;;11.73;7.35;;;18.70;1.00;;;;;;5011587;28;20026;-87
2021/07/04 01:53:07;;;;;;;12.27;6.90;;;18.60;1.00;;;;;;5011702;28;20489;-87
2021/07/04 01:55:33;;;;;;;11.27;6.90;;;18.50;1.00;;;;;;5010707;28;20029;-87
2021/07/04 01:57:59;;;;;;;12.85;7.30;;;18.50;1.00;;;;;;5014435;28;20045;-87
2021/07/04 02:00:28;;;;;;;7.25;6.55;;;18.60;1.00;;;;;;5015604;28;20033;-87
2021/07/04 02:02:58;;;;;;;11.38;6.78;;;18.60;1.00;;;;;;5014759;28;20029;-88
2021/07/04 02:05:24;;;;;;;10.30;7.65;;;18.50;1.00;;;;;;5014799;28;20030;-88
2021/07/04 02:07:51;;;;;;;13.25;7.55;;;18.60;1.00;;;;;;5015225;28;20044;-88
2021/07/04 02:10:22;;;;;;;9.77;7.55;;;18.60;1.00;;;;;;5015246;28;20022;-88
2021/07/04 02:12:48;;;;;;;9.27;7.20;;;18.60;1.00;;;;;;5015607;28;20466;-88
2021/07/04 02:15:18;;;;;;;8.00;7.20;;;18.70;1.00;;;;;;5015094;28;20058;-88
2021/07/04 02:17:45;;;;;;;10.30;7.38;;;18.70;1.00;;;;;;5014961;28;20030;-87
2021/07/04 02:20:20;;;;;;;8.68;6.72;;;19.10;1.00;;;;;;5014830;28;20041;-88
2021/07/04 02:22:46;;;;;;;10.15;7.47;;;18.60;1.00;;;;;;5014923;28;20044;-87
2021/07/04 02:25:11;;;;;;;8.00;7.20;;;18.70;1.00;;;;;;5015103;28;20128;-87
2021/07/04 02:27:37;;;;;;;11.48;6.78;;;18.60;1.00;;;;;;5015149;28;20042;-88
2021/07/04 02:30:04;;;;;;;7.75;6.95;;;18.50;1.00;;;;;;5015106;28;20111;-88
2021/07/04 02:32:29;;;;;;;10.18;7.13;;;18.50;1.00;;;;;;5014395;28;20398;-88
2021/07/04 02:34:55;;;;;;;8.52;7.50;;;18.50;1.00;;;;;;5014473;28;20022;-88
2021/07/04 02:37:20;;;;;;;10.82;7.75;;;18.50;1.00;;;;;;5014648;28;20121;-87
2021/07/04 02:39:46;;;;;;;8.35;7.45;;;18.50;1.00;;;;;;5015301;28;20026;-88
2021/07/04 02:42:12;;;;;;;13.07;7.80;;;18.50;1.00;;;;;;5014753;28;20034;-88
2021/07/04 02:44:37;;;;;;;11.50;7.25;;;18.50;1.00;;;;;;5014616;28;20053;-87
2021/07/04 02:47:03;;;;;;;12.40;7.80;;;18.50;1.00;;;;;;5014119;28;20037;-87
2021/07/04 02:49:29;;;;;;;10.77;7.50;;;18.50;1.00;;;;;;5014510;28;20022;-87
2021/07/04 02:51:54;;;;;;;9.25;7.13;;;18.50;1.00;;;;;;5015217;28;20036;-87
2021/07/04 02:54:20;;;;;;;14.50;7.68;;;18.40;1.00;;;;;;5014250;28;20045;-88
2021/07/04 02:56:46;;;;;;;12.52;7.65;;;18.40;1.00;;;;;;5014461;28;20065;-87
2021/07/04 02:59:11;;;;;;;10.25;7.45;;;18.30;1.00;;;;;;5014560;28;20026;-88
2021/07/04 03:01:37;;;;;;;8.90;7.45;;;18.30;1.00;;;;;;5014034;28;20034;-87
2021/07/04 03:04:02;;;;;;;12.40;7.63;;;18.20;1.00;;;;;;5014029;28;20034;-87
2021/07/04 03:06:28;;;;;;;9.85;7.90;;;18.20;1.00;;;;;;5014366;28;20048;-87
2021/07/04 03:08:54;;;;;;;12.50;7.22;;;18.30;1.00;;;;;;5014035;28;20080;-88
2021/07/04 03:11:19;;;;;;;10.02;7.28;;;18.30;1.00;;;;;;5013239;28;20054;-88
2021/07/04 03:13:45;;;;;;;10.43;7.22;;;18.40;1.00;;;;;;5014036;28;20038;-88
2021/07/04 03:16:10;;;;;;;9.65;7.15;;;18.30;1.00;;;;;;5013834;28;20076;-88
2021/07/04 03:18:36;;;;;;;11.50;7.30;;;18.40;1.00;;;;;;5014214;28;20026;-87
2021/07/04 03:21:02;;;;;;;10.73;7.22;;;18.40;1.00;;;;;;5013899;28;20505;-88
2021/07/04 03:23:27;;;;;;;11.10;6.78;;;18.10;1.00;;;;;;5013821;28;20037;-88
2021/07/04 03:25:54;;;;;;;10.90;7.03;;;18.10;1.00;;;;;;5014407;28;20053;-88
2021/07/04 03:28:20;;;;;;;12.55;7.38;;;18.20;1.00;;;;;;5012257;28;20040;-88
2021/07/04 03:30:46;;;;;;;8.50;7.38;;;18.20;1.00;;;;;;5013746;28;20030;-88
2021/07/04 03:33:12;;;;;;;12.57;7.03;;;18.30;1.00;;;;;;5013731;28;20117;-87
2021/07/04 03:35:37;;;;;;;11.43;7.10;;;18.30;1.00;;;;;;5029085;28;20436;-88
2021/07/04 03:38:03;;;;;;;11.32;6.72;;;18.40;1.00;;;;;;5013231;28;20032;-88
2021/07/04 03:40:28;;;;;;;8.73;7.00;;;18.40;1.00;;;;;;5013792;28;20021;-88
2021/07/04 03:42:54;;;;;;;11.60;7.07;;;18.70;1.00;;;;;;5014168;28;20030;-88
2021/07/04 03:45:20;;;;;;;10.55;6.75;;;18.40;1.00;;;;;;5012882;28;20050;-88
2021/07/04 03:47:45;;;;;;;14.35;8.05;;;18.50;1.00;;;;;;5013183;28;20128;-87
2021/07/04 03:50:12;;;;;;;8.80;7.00;;;18.50;1.00;;;;;;5013180;28;20621;-88
2021/07/04 03:52:38;;;;;;;10.93;7.38;;;18.40;1.00;;;;;;5013617;28;20482;-88
2021/07/04 03:55:05;;;;;;;10.25;7.10;;;18.40;1.00;;;;;;5013831;28;20033;-88
2021/07/04 03:57:32;;;;;;;9.48;7.18;;;18.40;1.00;;;;;;5013713;28;20025;-88
2021/07/04 03:59:59;;;;;;;11.90;7.43;;;18.50;1.00;;;;;;5013551;28;20080;-88
2021/07/04 04:02:25;;;;;;;9.27;7.63;;;18.40;1.00;;;;;;5011443;28;20025;-87
2021/07/04 04:04:58;;;;;;;14.85;7.97;;;18.40;1.00;;;;;;5013135;28;20092;-86
2021/07/04 04:07:24;;;;;;;9.82;7.45;;;18.40;1.00;;;;;;5011808;28;20048;-88
2021/07/04 04:09:51;;;;;;;12.05;7.43;;;18.50;1.00;;;;;;5014357;28;20057;-88
2021/07/04 04:12:18;;;;;;;12.38;7.20;;;18.60;1.00;;;;;;5010892;28;20037;-88
2021/07/04 04:14:43;;;;;;;9.05;7.40;;;18.70;1.00;;;;;;5012686;28;20030;-88
2021/07/04 04:17:09;;;;;;;11.43;8.35;;;18.70;1.00;;;;;;5012668;28;20633;-88
2021/07/04 04:19:35;;;;;;;8.52;7.57;;;18.70;1.00;;;;;;5012576;28;20022;-88
2021/07/04 04:22:00;;;;;;;8.68;7.43;;;18.80;1.00;;;;;;5012478;28;20033;-88
2021/07/04 04:24:27;;;;;;;8.82;7.22;;;18.80;1.00;;;;;;5012235;28;20061;-88
2021/07/04 04:26:53;;;;;;;10.20;8.18;;;18.80;1.00;;;;;;5012013;28;20029;-88
2021/07/04 04:29:19;;;;;;;13.43;8.75;;;18.90;1.00;;;;;;5011150;28;20417;-88
2021/07/04 04:31:46;;;;;;;12.00;8.15;;;18.90;1.00;;;;;;5012537;28;20107;-90
2021/07/04 04:34:12;;;;;;;9.77;7.85;;;18.90;1.00;;;;;;5012640;28;20169;-89
2021/07/04 04:36:38;;;;;;;8.63;7.80;;;19.00;1.00;;;;;;5014628;28;20109;-95
2021/07/04 04:39:05;;;;;;;10.75;8.00;;;19.00;1.00;;;;;;5014159;28;20115;-93
2021/07/04 04:41:33;;;;;;;9.90;7.80;;;19.10;1.00;;;;;;5012134;28;20117;-94
2021/07/04 04:43:59;;;;;;;12.60;7.68;;;19.00;1.00;;;;;;5013148;28;20510;-94
2021/07/04 04:46:25;;;;;;;9.85;8.02;;;18.80;1.00;;;;;;5012070;28;20037;-89
2021/07/04 04:48:50;;;;;;;11.48;7.25;;;18.80;1.00;;;;;;5012003;28;20033;-95
2021/07/04 04:51:16;;;;;;;10.10;8.35;;;18.90;1.00;;;;;;5013810;28;20422;-92
2021/07/04 04:53:42;;;;;;;10.57;7.65;;;18.80;1.00;;;;;;5012099;28;20041;-91
2021/07/04 04:56:08;;;;;;;9.35;8.05;;;19.00;1.00;;;;;;5013046;28;20049;-93
2021/07/04 04:58:33;;;;;;;9.73;7.15;;;19.00;1.00;;;;;;5012356;28;20045;-92
2021/07/04 05:00:59;;;;;;;8.90;7.85;;;19.10;1.00;;;;;;5013482;28;20072;-92
2021/07/04 05:03:25;;;;;;;10.38;7.60;;;19.10;1.00;;;;;;5013179;28;20052;-91
2021/07/04 05:05:50;;;;;;;11.27;6.95;;;19.10;1.00;;;;;;5013331;28;20034;-91
2021/07/04 05:08:16;;;;;;;10.60;7.30;;;18.90;1.00;;;;;;5013241;28;20156;-93
2021/07/04 05:10:42;;;;;;;15.10;8.13;;;19.00;1.00;;;;;;5011938;28;20036;-92
2021/07/04 05:13:08;;;;;;;12.00;7.60;;;19.10;1.00;;;;;;5013821;28;20033;-91
2021/07/04 05:15:33;;;;;;;10.30;7.18;;;19.00;1.00;;;;;;5011692;28;20049;-93
2021/07/04 05:18:06;;;;;;;7.78;6.95;;;19.00;1.00;;;;;;5027585;28;20446;-92
2021/07/04 05:20:32;;;;;;;9.57;7.22;;;19.00;1.00;;;;;;5027109;28;20486;-92
2021/07/04 05:22:58;;;;;;;8.82;7.47;;;19.10;1.00;;;;;;5025139;28;20037;-92
2021/07/04 05:25:24;;;;;;;12.15;7.18;;;19.20;1.00;;;;;;5013422;28;20093;-92
2021/07/04 05:27:49;;;;;;;11.98;7.65;;;19.30;1.00;;;;;;5012520;28;20175;-92
2021/07/04 05:30:16;;;;;;;9.38;7.35;;;19.40;1.00;;;;;;5012995;28;20041;-92
2021/07/04 05:32:42;;;;;;;10.93;8.23;;;19.40;1.00;;;;;;5017406;28;20061;-92
2021/07/04 05:35:08;;;;;;;11.25;6.63;;;19.50;1.00;;;;;;5021986;28;20018;-92
2021/07/04 05:37:34;;;;;;;12.05;7.57;;;19.40;1.00;;;;;;5016816;28;20484;-92
2021/07/04 05:40:02;;;;;;;12.43;8.20;;;19.40;1.00;;;;;;5016854;28;20478;-92
2021/07/04 05:42:29;;;;;;;9.35;6.97;;;19.40;1.00;;;;;;5017291;28;20034;-92
2021/07/04 05:44:54;;;;;;;11.88;7.60;;;19.40;1.00;;;;;;5015477;28;20445;-92
2021/07/04 05:47:20;;;;;;;9.68;7.38;;;19.40;1.00;;;;;;5015303;28;20038;-92
2021/07/04 05:49:46;;;;;;;11.23;7.38;;;19.30;1.00;;;;;;5014551;28;20026;-92
2021/07/04 05:52:11;;;;;;;12.98;7.70;;;19.20;1.00;;;;;;5016419;28;20036;-92
2021/07/04 05:54:37;;;;;;;9.50;7.35;;;19.30;1.00;;;;;;5016830;28;20517;-93
2021/07/04 05:57:06;;;;;;;9.35;6.65;;;19.30;1.00;;;;;;5016006;28;20029;-92
2021/07/04 05:59:33;;;;;;;8.15;6.85;;;19.30;1.00;;;;;;5016100;28;20053;-92
2021/07/04 06:01:59;;;;;;;8.68;7.28;;;19.40;1.00;;;;;;5016659;28;20041;-92
2021/07/04 06:04:25;;;;;;;8.80;6.53;;;19.50;1.00;;;;;;5031216;28;20031;-92
2021/07/04 06:06:52;;;;;;;7.97;6.50;;;19.60;1.00;;;;;;4999931;28;20411;-93
2021/07/04 06:09:18;;;;;;;7.65;6.85;;;19.80;1.00;;;;;;5015869;28;20038;-92
2021/07/04 06:11:44;;;;;;;8.90;6.85;;;19.80;1.00;;;;;;5016602;28;20498;-95
2021/07/04 06:14:10;;;;;;;10.57;6.80;;;19.80;1.00;;;;;;5017016;28;20170;-95
2021/07/04 06:16:36;;;;;;;10.00;6.03;;;19.90;1.00;;;;;;5015772;28;20577;-95
2021/07/04 06:19:02;;;;;;;7.00;6.30;;;20.00;1.00;;;;;;5015529;28;20022;-95
2021/07/04 06:21:28;;;;;;;9.30;6.35;;;20.20;1.00;;;;;;5015507;28;20029;-95
2021/07/04 06:23:54;;;;;;;12.82;7.22;;;20.30;1.00;;;;;;5015881;28;20106;-95
2021/07/04 06:26:19;;;;;;;11.05;6.85;;;20.20;1.00;;;;;;5015279;28;20121;-94
2021/07/04 06:28:45;;;;;;;9.00;6.50;;;20.00;1.00;;;;;;5016689;28;20034;-95
2021/07/04 06:31:11;;;;;;;8.45;6.65;;;19.90;1.00;;;;;;5000107;28;20061;-95
2021/07/04 06:33:36;;;;;;;8.68;6.38;;;19.80;1.00;;;;;;5015429;28;20486;-91
2021/07/04 06:36:02;;;;;;;8.15;6.43;;;19.70;1.00;;;;;;5013767;28;20026;-90
2021/07/04 06:38:28;;;;;;;8.18;6.53;;;19.50;1.00;;;;;;5015962;28;20024;-90
2021/07/04 06:40:54;;;;;;;9.30;6.97;;;19.30;1.00;;;;;;5030515;28;20486;-91
2021/07/04 06:43:19;;;;;;;8.55;6.60;;;19.50;1.00;;;;;;4997366;28;20028;-92
2021/07/04 06:45:45;;;;;;;8.60;6.03;;;19.40;1.00;;;;;;5015479;28;20061;-91
2021/07/04 06:48:12;;;;;;;8.85;7.20;;;19.50;1.00;;;;;;5018491;28;20041;-90
2021/07/04 06:50:38;;;;;;;7.32;6.55;;;19.60;1.00;;;;;;5015513;28;20025;-90
2021/07/04 06:53:03;;;;;;;7.05;6.13;;;19.60;1.00;;;;;;5013977;28;20041;-90
2021/07/04 06:55:29;;;;;;;10.90;6.25;;;19.70;1.00;;;;;;5014033;28;20021;-90
2021/07/04 06:57:55;;;;;;;8.15;6.82;;;19.90;1.00;;;;;;5014647;28;20386;-91
2021/07/04 07:00:21;;;;;;;9.50;6.20;;;20.00;1.00;;;;;;5030194;28;20053;-91
2021/07/04 07:02:47;;;;;;;8.38;6.07;;;20.10;1.00;;;;;;5015582;28;20045;-91
2021/07/04 07:05:14;;;;;;;9.20;6.88;;;20.10;1.00;;;;;;5014756;28;20030;-91
2021/07/04 07:07:41;;;;;;;6.63;6.03;;;20.20;1.00;;;;;;5013216;28;20041;-91
2021/07/04 07:10:10;;;;;;;7.82;5.95;;;20.20;1.00;;;;;;5015393;28;20026;-92
2021/07/04 07:12:35;;;;;;;6.85;6.22;;;20.10;1.00;;;;;;5015006;28;20157;-91
2021/07/04 07:15:02;;;;;;;6.35;5.75;;;20.10;1.00;;;;;;5015727;28;20455;-90
2021/07/04 07:17:27;;;;;;;8.73;6.03;;;20.00;1.00;;;;;;5014586;28;20040;-90
2021/07/04 07:19:53;;;;;;;9.55;6.18;;;19.90;1.00;;;;;;5015420;28;20030;-91
2021/07/04 07:22:20;;;;;;;9.63;6.50;;;19.90;1.00;;;;;;5015061;28;20038;-93
2021/07/04 07:24:47;;;;;;;7.57;6.80;;;19.70;1.00;;;;;;5015145;28;20037;-91
2021/07/04 07:27:13;;;;;;;12.00;7.55;;;19.60;1.00;;;;;;5013718;28;20070;-91
2021/07/04 07:29:38;;;;;;;8.07;7.28;;;19.40;1.00;;;;;;5014636;28;20022;-90
2021/07/04 07:32:05;;;;;;;8.90;7.97;;;19.40;1.00;;;;;;5013266;28;20022;-89
2021/07/04 07:34:31;;;;;;;13.00;8.60;;;19.20;1.00;;;;;;5013901;28;20484;-90
2021/07/04 07:36:56;;;;;;;11.05;8.93;;;19.10;1.00;;;;;;5013422;28;20033;-89
2021/07/04 07:39:22;;;;;;;15.88;8.52;;;19.20;1.00;;;;;;5014253;28;20133;-89
2021/07/04 07:41:48;;;;;;;11.63;9.98;;;19.30;1.00;;;;;;5014189;28;20037;-89
2021/07/04 07:44:14;;;;;;;14.23;9.57;;;19.30;1.00;;;;;;5013695;28;20030;-89
2021/07/04 07:46:41;;;;;;;10.63;8.88;;;19.30;1.00;;;;;;5013731;28;20042;-89
2021/07/04 07:49:06;;;;;;;11.13;8.88;;;19.30;1.00;;;;;;5013859;28;20030;-90
2021/07/04 07:51:32;;;;;;;10.20;8.95;;;19.30;1.00;;;;;;5014214;28;20036;-89
2021/07/04 07:53:58;;;;;;;12.35;8.85;;;19.40;1.00;;;;;;5011876;28;20101;-89
2021/07/04 07:56:24;;;;;;;13.35;8.85;;;19.60;1.00;;;;;;5013671;28;20036;-89
2021/07/04 07:58:51;;;;;;;10.30;9.00;;;19.60;1.00;;;;;;5014255;28;20161;-89
2021/07/04 08:01:17;;;;;;;12.77;9.63;;;19.70;1.00;;;;;;5013996;28;20048;-90
2021/07/04 08:03:44;;;;;;;15.30;9.52;;;19.50;1.00;;;;;;5013968;28;20030;-90
2021/07/04 08:06:10;;;;;;;14.07;9.85;;;19.40;1.00;;;;;;5013010;28;20064;-89
2021/07/04 08:08:36;;;;;;;12.23;9.20;;;19.30;1.00;;;;;;5012044;28;20387;-90
2021/07/04 08:11:03;;;;;;;13.32;9.25;;;19.30;1.00;;;;;;5011838;28;20065;-90
2021/07/04 08:13:29;;;;;;;11.13;9.82;;;19.30;1.00;;;;;;5013470;28;20068;-90
2021/07/04 08:15:55;;;;;;;14.50;9.52;;;19.30;1.00;;;;;;5014325;28;20055;-90
2021/07/04 08:18:24;;;;;;;10.10;8.80;;;19.30;1.00;;;;;;5013912;28;20041;-90
2021/07/04 08:20:49;;;;;;;11.07;8.45;;;19.30;1.00;;;;;;5012959;28;20034;-90
2021/07/04 08:23:16;;;;;;;11.45;8.80;;;19.40;1.00;;;;;;5013315;28;20089;-90
2021/07/04 08:25:42;;;;;;;10.27;8.63;;;19.10;1.00;;;;;;5013662;28;20025;-90
2021/07/04 08:28:08;;;;;;;8.85;7.95;;;19.00;1.00;;;;;;5013392;28;20046;-91
2021/07/04 08:30:33;;;;;;;9.13;8.23;;;19.10;1.00;;;;;;5014024;28;20502;-91
2021/07/04 08:32:59;;;;;;;9.57;8.45;;;19.10;1.00;;;;;;5011601;28;20410;-89
2021/07/04 08:35:25;;;;;;;7.80;7.10;;;19.20;1.00;;;;;;5011772;28;20028;-91
2021/07/04 08:37:50;;;;;;;9.10;7.65;;;19.30;1.00;;;;;;5013608;28;20120;-91
2021/07/04 08:40:18;;;;;;;11.80;8.80;;;19.20;1.00;;;;;;5012447;28;20073;-91
2021/07/04 08:42:44;;;;;;;10.57;7.97;;;19.30;1.00;;;;;;5013631;28;20112;-91
2021/07/04 08:45:10;;;;;;;9.23;7.13;;;19.40;1.00;;;;;;5013304;28;20644;-91
2021/07/04 08:47:36;;;;;;;10.40;6.82;;;19.30;1.00;;;;;;5011462;28;20038;-91
2021/07/04 08:50:04;;;;;;;8.80;7.95;;;19.30;1.00;;;;;;5013420;28;20026;-91
2021/07/04 08:52:29;;;;;;;8.60;7.22;;;19.40;1.00;;;;;;5011354;28;20113;-91
2021/07/04 08:54:55;;;;;;;7.53;6.82;;;19.60;1.00;;;;;;5012413;28;20109;-92
2021/07/04 08:57:21;;;;;;;8.57;7.22;;;19.70;1.00;;;;;;5012974;28;20038;-91
2021/07/04 08:59:48;;;;;;;7.93;7.22;;;19.90;1.00;;;;;;5013164;28;20140;-91
2021/07/04 09:02:28;;;;;;;7.57;6.85;;;20.10;1.00;;;;;;5011694;28;20113;-91
2021/07/04 09:05:03;;;;;;;7.53;6.70;;;20.20;1.00;;;;;;5012694;28;20053;-91
2021/07/04 09:07:30;;;;;;;7.65;6.45;;;20.40;1.00;;;;;;4997564;28;20038;-91
2021/07/04 09:10:02;;;;;;;12.85;7.25;;;20.50;1.00;;;;;;5013495;28;20037;-91
2021/07/04 09:12:48;;;;;;;9.57;6.47;;;20.70;1.00;;;;;;5013488;28;20065;-91
2021/07/04 09:15:19;;;;;;;6.97;6.28;;;20.70;1.00;;;;;;5012649;28;20080;-91
2021/07/04 09:17:47;;;;;;;7.13;6.32;;;20.90;1.00;;;;;;5012534;28;20042;-91
2021/07/04 09:20:19;;;;;;;5.70;5.18;;;21.00;1.00;;;;;;5011491;28;20124;-91
2021/07/04 09:22:52;;;;;;;5.78;5.28;;;21.20;1.00;;;;;;5010823;28;20038;-91
2021/07/04 09:25:19;;;;;;;5.43;4.93;;;21.60;1.00;;;;;;5012657;28;20037;-93
2021/07/04 09:28:05;;;;;;;5.78;4.60;;;22.00;1.00;;;;;;5011507;28;20046;-91
2021/07/04 09:30:40;;;;;;;6.72;4.47;;;22.40;1.00;;;;;;5012108;28;20026;-91
2021/07/04 09:33:17;;;;;;;5.57;4.60;;;22.50;1.00;;;;;;5012546;28;20501;-92
2021/07/04 09:35:59;;;;;;;5.63;5.13;;;22.90;1.00;;;;;;5012681;28;20036;-90
2021/07/04 09:38:33;;;;;;;4.80;4.32;;;22.80;1.00;;;;;;5013073;28;20018;-91
2021/07/04 09:41:00;;;;;;;6.13;4.97;;;22.80;1.00;;;;;;5012612;28;20075;-92
2021/07/04 09:43:31;;;;;;;5.78;5.28;;;22.90;1.00;;;;;;4996620;28;20026;-91
2021/07/04 09:45:59;;;;;;;5.72;5.10;;;23.00;1.00;;;;;;5012448;28;20056;-92
2021/07/04 09:48:28;;;;;;;4.90;4.50;;;22.90;1.00;;;;;;5010813;28;20034;-91
2021/07/04 09:50:55;;;;;;;6.47;4.75;;;23.10;1.00;;;;;;5012747;28;20041;-91
2021/07/04 09:53:29;;;;;;;4.25;3.85;;;23.30;1.00;;;;;;5011272;28;20033;-91
2021/07/04 09:56:25;;;;;;;4.68;4.28;;;23.20;1.00;;;;;;5012327;28;20117;-91
2021/07/04 09:58:59;;;;;;;4.68;3.78;;;23.60;1.00;;;;;;5000189;28;20030;-91
2021/07/04 10:01:35;;;;;;;3.92;3.53;;;23.50;1.00;;;;;;4996906;28;20033;-91
2021/07/04 10:04:04;;;;;;;3.60;3.22;;;23.30;1.00;;;;;;5008114;28;20025;-91
2021/07/04 10:06:47;;;;;;;3.90;3.42;;;22.80;1.00;;;;;;5011363;28;20105;-91
2021/07/04 10:09:14;;;;;;;4.78;3.80;;;22.70;1.00;;;;;;5012306;28;20382;-90
2021/07/04 10:11:39;;;;;;;4.30;3.60;;;22.40;1.00;;;;;;5011340;28;20034;-91
2021/07/04 10:14:05;;;;;;;3.45;3.15;;;22.30;1.00;;;;;;5011823;28;20049;-91
2021/07/04 10:16:32;;;;;;;4.07;3.22;;;22.10;1.00;;;;;;5010620;28;20125;-91
2021/07/04 10:19:02;;;;;;;5.50;4.10;;;21.80;1.00;;;;;;5015307;28;20524;-91
2021/07/04 10:21:28;;;;;;;5.10;4.22;;;21.90;1.00;;;;;;5016074;28;20510;-91
2021/07/04 10:23:57;;;;;;;4.72;4.32;;;21.80;1.00;;;;;;5016108;28;20030;-90
2021/07/04 10:26:25;;;;;;;6.03;4.95;;;21.70;1.00;;;;;;5015547;28;20018;-91
2021/07/04 10:28:55;;;;;;;5.85;5.35;;;21.60;1.00;;;;;;5015104;28;20045;-90
2021/07/04 10:31:21;;;;;;;5.82;5.28;;;21.60;1.00;;;;;;5014198;28;20033;-90
2021/07/04 10:34:07;;;;;;;8.38;5.95;;;21.60;1.00;;;;;;5014561;28;20429;-91
2021/07/04 10:36:58;;;;;;;6.15;5.55;;;21.30;1.00;;;;;;5015597;28;20033;-91
2021/07/04 10:39:25;;;;;;;7.28;6.25;;;21.10;1.00;;;;;;5014233;28;20401;-90
2021/07/04 10:42:06;;;;;;;6.47;5.88;;;20.90;1.00;;;;;;5015060;28;20026;-90
2021/07/04 10:44:48;;;;;;;7.50;6.10;;;20.80;1.00;;;;;;5013180;28;20050;-90
2021/07/04 10:47:26;;;;;;;9.15;6.10;;;20.70;1.00;;;;;;5014796;28;20447;-90
2021/07/04 10:50:06;;;;;;;10.45;6.30;;;20.60;1.00;;;;;;5014891;28;20022;-89
2021/07/04 10:52:34;;;;;;;8.98;6.70;;;20.50;1.00;;;;;;5015485;28;20125;-90
2021/07/04 10:55:01;;;;;;;7.63;6.20;;;20.40;1.00;;;;;;5015937;28;20045;-90
2021/07/04 10:57:33;;;;;;;8.90;6.32;;;20.20;1.00;;;;;;5014588;28;20033;-90
2021/07/04 10:59:59;;;;;;;6.88;4.40;;;19.80;1.00;;;;;;5014858;28;20026;-91
2021/07/04 11:02:42;;;;;;;7.78;2.97;;;19.00;1.00;;;;;;5014806;28;20553;-90
2021/07/04 11:05:21;;;;;;;3.38;2.83;;;18.10;1.00;;;;;;5015216;28;20052;-90
2021/07/04 11:07:52;;;;;;;5.82;3.00;;;17.90;1.00;;;;;;5015141;28;20042;-90
2021/07/04 11:10:21;;;;;;;7.82;4.10;;;18.10;1.00;;;;;;5014719;28;20433;-89
2021/07/04 11:12:47;;;;;;;6.75;3.70;;;18.40;1.00;;;;;;5013718;28;20316;-90
2021/07/04 11:15:13;;;;;;;3.92;3.17;;;18.50;1.00;;;;;;5014852;28;20487;-90
2021/07/04 11:17:57;;;;;;;4.72;2.85;;;18.70;1.00;;;;;;5014229;28;20105;-89
2021/07/04 11:20:29;;;;;;;6.78;4.47;;;18.70;1.00;;;;;;5014071;28;20093;-90
2021/07/04 11:22:58;;;;;;;6.20;3.63;;;18.50;1.00;;;;;;5014718;28;20076;-90
2021/07/04 11:25:36;;;;;;;6.03;3.50;;;18.80;1.00;;;;;;5013267;28;20040;-90
2021/07/04 11:28:18;;;;;;;6.30;3.53;;;19.10;1.00;;;;;;5011252;28;20486;-90
2021/07/04 11:30:44;;;;;;;4.07;3.17;;;19.30;1.00;;;;;;5014461;28;20478;-90
2021/07/04 11:33:34;;;;;;;9.00;4.03;;;19.40;1.00;;;;;;5014499;28;20029;-90
2021/07/04 11:36:07;;;;;;;4.60;3.92;;;19.40;1.00;;;;;;5014730;28;20033;-91
2021/07/04 11:38:36;;;;;;;5.55;2.85;;;19.60;1.00;;;;;;5012857;28;20072;-90
2021/07/04 11:41:04;;;;;;;5.70;3.35;;;19.60;1.00;;;;;;5013997;28;20117;-90
2021/07/04 11:43:30;;;;;;;7.97;4.05;;;19.60;1.00;;;;;;5013840;28;20049;-89
2021/07/04 11:46:06;;;;;;;3.78;2.92;;;19.70;1.00;;;;;;5014537;28;20046;-90
2021/07/04 11:48:47;;;;;;;3.25;2.88;;;19.80;1.00;;;;;;5013626;28;20042;-91
2021/07/04 11:51:30;;;;;;;3.65;2.53;;;20.00;1.00;;;;;;5012809;28;20033;-91
2021/07/04 11:53:59;;;;;;;3.53;2.60;;;20.10;1.00;;;;;;5014046;28;20029;-91
2021/07/04 11:56:25;;;;;;;6.15;5.05;;;20.30;1.00;;;;;;5013867;28;20025;-91
2021/07/04 11:58:51;;;;;;;8.15;4.75;;;20.30;1.00;;;;;;5014245;28;20033;-92
2021/07/04 12:01:22;;;;;;;5.40;3.58;;;20.30;1.00;;;;;;5012465;28;20041;-92
2021/07/04 12:03:53;;;;;;;4.60;2.65;;;20.40;1.00;;;;;;5014244;28;20033;-93
2021/07/04 12:06:20;;;;;;;4.28;3.10;;;20.50;1.00;;;;;;5014010;28;20022;-92
2021/07/04 12:08:54;;;;;;;4.13;2.60;;;20.60;1.00;;;;;;5013534;28;20056;-93
2021/07/04 12:11:37;;;;;;;5.00;2.65;;;20.90;1.00;;;;;;5013456;28;20075;-92
2021/07/04 12:14:03;;;;;;;2.83;2.42;;;21.40;1.00;;;;;;5013409;28;20448;-92
2021/07/04 12:16:37;;;;;;;7.15;2.40;;;22.20;1.00;;;;;;5012931;28;20120;-93
2021/07/04 12:19:02;;;;;;;4.35;1.98;;;23.70;1.00;;;;;;5013927;28;20033;-90
2021/07/04 12:21:37;;;;;;;1.73;1.63;;;25.40;1.00;;;;;;5013728;28;20034;-90
2021/07/04 12:24:02;;;;;;;2.05;1.40;;;26.70;99.90;;;;;;5012838;28;20130;-90
2021/07/04 12:26:28;;;;;;;3.38;1.50;;;26.50;99.90;;;;;;5012228;28;20053;-89
2021/07/04 12:29:03;;;;;;;3.20;2.10;;;27.20;99.90;;;;;;5013170;28;20025;-89
2021/07/04 12:31:28;;;;;;;2.28;1.80;;;27.10;99.90;;;;;;4998394;28;20098;-89
2021/07/04 12:33:54;;;;;;;1.90;1.38;;;26.10;99.90;;;;;;5009534;28;20141;-90
2021/07/04 12:36:20;;;;;;;1.73;1.63;;;26.30;99.90;;;;;;5011882;28;20026;-89
2021/07/04 12:38:50;;;;;;;1.45;1.30;;;27.50;99.90;;;;;;5013203;28;20030;-89
2021/07/04 12:41:16;;;;;;;1.48;1.38;;;27.20;99.90;;;;;;5012369;28;20553;-90
2021/07/04 12:43:46;;;;;;;1.80;1.42;;;26.10;99.90;;;;;;5011995;28;20077;-91
2021/07/04 12:46:17;;;;;;;3.70;1.80;;;25.80;99.90;;;;;;5012578;28;20120;-90
2021/07/04 12:48:48;;;;;;;2.13;1.13;;;26.10;99.90;;;;;;5011763;28;20084;-90
2021/07/04 12:51:22;;;;;;;2.20;1.30;;;26.00;99.90;;;;;;5011906;28;20088;-91
2021/07/04 12:53:47;;;;;;;2.03;1.45;;;25.80;99.90;;;;;;5013499;28;20037;-90
2021/07/04 12:56:33;;;;;;;1.52;1.40;;;25.40;99.90;;;;;;5013129;28;20040;-90
2021/07/04 12:59:03;;;;;;;2.90;1.30;;;26.30;99.90;;;;;;5012916;28;20116;-90